Time;durP1;ratioP1;P1;durP2;ratioP2;P2;SDS_P1;SDS_P2;PMS_P1;PMS_P2;Temp;Humidity;BMP_temperature;BMP_pressure;BME280_temperature;BME280_humidity;BME280_pressure;Samples;Min_cycle;Max_cycle;Signal;HPM_P1;HPM_P2
2023/12/06 00:00:47;;;;;;;;;;;1.80;99.90;;;;;;5096009;27;20362;-88
2023/12/06 00:03:12;;;;;;;;;;;0.90;99.90;;;;;;5101044;28;19931;-87
2023/12/06 00:05:39;;;;;;;;;;;0.90;99.90;;;;;;5096057;28;19931;-88
2023/12/06 00:08:05;;;;;;;;;;;1.00;99.90;;;;;;5102901;27;19958;-86
2023/12/06 00:10:31;;;;;;;;;;;1.00;99.90;;;;;;5106303;28;20442;-88
2023/12/06 00:12:56;;;;;;;;;;;1.00;99.90;;;;;;5099965;27;19920;-87
2023/12/06 00:15:22;;;;;;;;;;;1.00;99.90;;;;;;5107556;28;19930;-87
2023/12/06 00:17:47;;;;;;;;;;;1.00;99.90;;;;;;5105171;28;19928;-87
2023/12/06 00:20:13;;;;;;;;;;;1.00;99.90;;;;;;5113734;27;20422;-89
2023/12/06 00:22:38;;;;;;;;;;;1.00;99.90;;;;;;5095055;28;20298;-87
2023/12/06 00:25:05;;;;;;;;;;;1.00;99.90;;;;;;5113827;27;20138;-87
2023/12/06 00:27:31;;;;;;;;;;;1.00;99.90;;;;;;5104778;27;19932;-87
2023/12/06 00:29:56;;;;;;;;;;;1.00;99.90;;;;;;5125481;27;20304;-88
2023/12/06 00:32:22;;;;;;;;;;;1.00;99.90;;;;;;5099907;27;19967;-87
2023/12/06 00:34:47;;;;;;;;;;;1.00;99.90;;;;;;5127767;27;20406;-89
2023/12/06 00:37:13;;;;;;;;;;;1.00;99.90;;;;;;5115006;27;20417;-85
2023/12/06 00:39:38;;;;;;;;;;;1.00;99.90;;;;;;5099280;27;20397;-86
2023/12/06 00:42:04;;;;;;;;;;;1.00;99.90;;;;;;5120612;27;19932;-85
2023/12/06 00:44:30;;;;;;;;;;;1.00;99.90;;;;;;5104193;27;19942;-85
2023/12/06 00:46:55;;;;;;;;;;;1.00;99.90;;;;;;5103786;27;20400;-86
2023/12/06 00:49:21;;;;;;;;;;;1.00;99.90;;;;;;5101357;28;19924;-85
2023/12/06 00:51:46;;;;;;;;;;;1.00;99.90;;;;;;5109932;27;19951;-86
2023/12/06 00:54:12;;;;;;;;;;;1.40;99.90;;;;;;5110666;27;19928;-86
2023/12/06 00:56:37;;;;;;;;;;;1.00;99.90;;;;;;5101112;28;20655;-85
2023/12/06 00:59:04;;;;;;;;;;;1.00;99.90;;;;;;5092623;27;19934;-87
2023/12/06 01:01:29;;;;;;;;;;;1.00;99.90;;;;;;5120249;27;19933;-86
2023/12/06 01:03:55;;;;;;;;;;;1.00;99.90;;;;;;5106185;27;19924;-86
2023/12/06 01:06:22;;;;;;;;;;;1.00;99.90;;;;;;5095299;28;20015;-87
2023/12/06 01:08:49;;;;;;;;;;;1.00;99.90;;;;;;5103272;28;20289;-86
2023/12/06 01:11:14;;;;;;;;;;;1.00;99.90;;;;;;5118734;27;20360;-85
2023/12/06 01:13:40;;;;;;;;;;;1.00;99.90;;;;;;5123691;27;19923;-87
2023/12/06 01:16:06;;;;;;;;;;;1.00;99.90;;;;;;5098294;28;19924;-86
2023/12/06 01:18:31;;;;;;;;;;;1.00;99.90;;;;;;5099866;28;20019;-86
2023/12/06 01:20:57;;;;;;;;;;;1.00;99.90;;;;;;5088724;28;20230;-87
2023/12/06 01:23:22;;;;;;;;;;;1.60;99.90;;;;;;5103795;28;20058;-86
2023/12/06 01:25:48;;;;;;;;;;;1.00;99.90;;;;;;5104140;28;19924;-85
2023/12/06 01:28:13;;;;;;;;;;;1.00;99.90;;;;;;5102764;28;19962;-88
2023/12/06 01:30:39;;;;;;;;;;;1.00;99.90;;;;;;5106432;28;19924;-86
2023/12/06 01:33:04;;;;;;;;;;;1.00;99.90;;;;;;5100469;28;19935;-85
2023/12/06 01:35:30;;;;;;;;;;;1.00;99.90;;;;;;5108950;28;19928;-84
2023/12/06 01:37:56;;;;;;;;;;;1.00;99.90;;;;;;5099951;28;19924;-84
2023/12/06 01:40:21;;;;;;;;;;;1.00;99.90;;;;;;5098395;28;20027;-85
2023/12/06 01:42:47;;;;;;;;;;;1.00;99.90;;;;;;5088515;28;20069;-84
2023/12/06 01:45:13;;;;;;;;;;;1.60;99.90;;;;;;5096188;28;19932;-84
2023/12/06 01:47:39;;;;;;;;;;;1.00;99.90;;;;;;5096260;28;20345;-84
2023/12/06 01:50:05;;;;;;;;;;;1.00;99.90;;;;;;5089743;28;20383;-86
2023/12/06 01:52:31;;;;;;;;;;;1.00;99.90;;;;;;5099858;28;19923;-85
2023/12/06 01:54:58;;;;;;;;;;;1.00;99.90;;;;;;5087450;28;19989;-86
2023/12/06 01:57:25;;;;;;;;;;;1.00;99.90;;;;;;5087653;28;19928;-85
2023/12/06 01:59:52;;;;;;;;;;;1.00;99.90;;;;;;5096357;28;19924;-84
2023/12/06 02:02:18;;;;;;;;;;;1.00;99.90;;;;;;5090471;28;19990;-84
2023/12/06 02:04:44;;;;;;;;;;;1.00;99.90;;;;;;5104497;28;20290;-85
2023/12/06 02:07:10;;;;;;;;;;;1.00;99.90;;;;;;5097885;27;20398;-84
2023/12/06 02:09:35;;;;;;;;;;;1.00;99.90;;;;;;5095508;28;19924;-84
2023/12/06 02:12:01;;;;;;;;;;;1.00;99.90;;;;;;5089261;28;19924;-84
2023/12/06 02:14:27;;;;;;;;;;;1.00;99.90;;;;;;5100700;28;19931;-84
2023/12/06 02:16:52;;;;;;;;;;;1.00;99.90;;;;;;5122678;27;19971;-84
2023/12/06 02:19:21;;;;;;;;;;;1.00;99.90;;;;;;5133966;27;19924;-85
2023/12/06 02:21:47;;;;;;;;;;;1.10;99.90;;;;;;5102921;28;20311;-85
2023/12/06 02:24:13;;;;;;;;;;;1.10;99.90;;;;;;5105920;28;19927;-84
2023/12/06 02:26:39;;;;;;;;;;;1.10;99.90;;;;;;5123047;27;19934;-85
2023/12/06 02:29:04;;;;;;;;;;;1.90;99.90;;;;;;5102000;28;20298;-84
2023/12/06 02:31:30;;;;;;;;;;;1.10;99.90;;;;;;5122319;27;20593;-84
2023/12/06 02:33:58;;;;;;;;;;;1.10;99.90;;;;;;5124654;27;20389;-84
2023/12/06 02:36:24;;;;;;;;;;;1.10;99.90;;;;;;5120503;27;20405;-84
2023/12/06 02:38:49;;;;;;;;;;;1.10;99.90;;;;;;5109413;27;19923;-84
2023/12/06 02:41:16;;;;;;;;;;;1.10;99.90;;;;;;5125003;27;19931;-84
2023/12/06 02:43:43;;;;;;;;;;;1.10;99.90;;;;;;5104224;27;19923;-84
2023/12/06 02:46:08;;;;;;;;;;;1.20;99.90;;;;;;5104115;28;19923;-85
2023/12/06 02:48:34;;;;;;;;;;;1.20;99.90;;;;;;5102747;27;19992;-84
2023/12/06 02:50:59;;;;;;;;;;;1.60;99.90;;;;;;5106563;28;19927;-84
2023/12/06 02:53:25;;;;;;;;;;;1.20;99.90;;;;;;5104261;28;19924;-84
2023/12/06 02:55:50;;;;;;;;;;;1.90;99.90;;;;;;5114567;27;19932;-84
2023/12/06 02:58:16;;;;;;;;;;;1.20;99.90;;;;;;5099266;28;19924;-84
2023/12/06 03:00:41;;;;;;;;;;;1.20;99.90;;;;;;5108430;28;20521;-84
2023/12/06 03:03:07;;;;;;;;;;;1.20;99.90;;;;;;5104311;28;20339;-83
2023/12/06 03:05:32;;;;;;;;;;;1.20;99.90;;;;;;5105891;27;19931;-84
2023/12/06 03:07:58;;;;;;;;;;;1.20;99.90;;;;;;5110934;27;19927;-83
2023/12/06 03:10:24;;;;;;;;;;;1.20;99.90;;;;;;5105316;27;19928;-84
2023/12/06 03:12:49;;;;;;;;;;;1.50;99.90;;;;;;5116670;27;19923;-83
2023/12/06 03:15:15;;;;;;;;;;;1.20;99.90;;;;;;5099981;27;19928;-83
2023/12/06 03:17:40;;;;;;;;;;;1.20;99.90;;;;;;5100884;28;20283;-84
2023/12/06 03:20:06;;;;;;;;;;;1.20;99.90;;;;;;5105525;27;19923;-83
2023/12/06 03:22:32;;;;;;;;;;;1.30;99.90;;;;;;5102768;27;20014;-84
2023/12/06 03:24:58;;;;;;;;;;;1.30;99.90;;;;;;5108883;27;20830;-83
2023/12/06 03:27:23;;;;;;;;;;;1.30;99.90;;;;;;5094100;27;19927;-85
2023/12/06 03:29:49;;;;;;;;;;;1.30;99.90;;;;;;5109103;28;19924;-84
2023/12/06 03:32:14;;;;;;;;;;;1.30;99.90;;;;;;5127001;27;20014;-84
2023/12/06 03:34:40;;;;;;;;;;;1.30;99.90;;;;;;5105977;28;19958;-84
2023/12/06 03:37:06;;;;;;;;;;;1.30;99.90;;;;;;5099406;27;19923;-85
2023/12/06 03:39:32;;;;;;;;;;;1.30;99.90;;;;;;5104891;28;19924;-84
2023/12/06 03:41:59;;;;;;;;;;;1.30;99.90;;;;;;5118249;27;20313;-84
2023/12/06 03:44:25;;;;;;;;;;;1.30;99.90;;;;;;5102855;28;19931;-83
2023/12/06 03:46:50;;;;;;;;;;;1.30;99.90;;;;;;5103748;27;19924;-86
2023/12/06 03:49:16;;;;;;;;;;;1.30;99.90;;;;;;5127458;27;19928;-84
2023/12/06 03:51:42;;;;;;;;;;;1.30;99.90;;;;;;5104519;27;20291;-84
2023/12/06 03:54:07;;;;;;;;;;;1.30;99.90;;;;;;5105107;28;19924;-85
2023/12/06 03:56:33;;;;;;;;;;;1.30;99.90;;;;;;5100617;28;20322;-85
2023/12/06 03:58:58;;;;;;;;;;;2.10;99.90;;;;;;5106220;28;20366;-86
2023/12/06 04:01:24;;;;;;;;;;;1.30;99.90;;;;;;5101731;27;20366;-85
2023/12/06 04:03:49;;;;;;;;;;;1.30;99.90;;;;;;5124568;27;20022;-86
2023/12/06 04:06:15;;;;;;;;;;;1.30;99.90;;;;;;5097085;28;19963;-86
2023/12/06 04:08:40;;;;;;;;;;;1.30;99.90;;;;;;5092408;28;19927;-86
2023/12/06 04:11:06;;;;;;;;;;;1.30;99.90;;;;;;5098163;27;19946;-85
2023/12/06 04:13:31;;;;;;;;;;;1.30;99.90;;;;;;5121340;27;19923;-85
2023/12/06 04:15:57;;;;;;;;;;;1.30;99.90;;;;;;5102995;28;20019;-85
2023/12/06 04:18:23;;;;;;;;;;;1.30;99.90;;;;;;5108801;27;19963;-85
2023/12/06 04:20:49;;;;;;;;;;;1.30;99.90;;;;;;5107737;27;20064;-85
2023/12/06 04:23:14;;;;;;;;;;;1.30;99.90;;;;;;5104123;27;20010;-85
2023/12/06 04:25:40;;;;;;;;;;;1.30;99.90;;;;;;5093771;28;19924;-84
2023/12/06 04:28:05;;;;;;;;;;;1.30;99.90;;;;;;5109548;27;19920;-85
2023/12/06 04:30:31;;;;;;;;;;;1.40;99.90;;;;;;5094452;27;20404;-85
2023/12/06 04:32:56;;;;;;;;;;;1.40;99.90;;;;;;5103254;27;20750;-85
2023/12/06 04:35:22;;;;;;;;;;;1.40;99.90;;;;;;5098672;28;20022;-86
2023/12/06 04:37:47;;;;;;;;;;;1.40;99.90;;;;;;5105944;28;19980;-85
2023/12/06 04:40:13;;;;;;;;;;;1.40;99.90;;;;;;5110403;27;19923;-84
2023/12/06 04:42:38;;;;;;;;;;;1.40;99.90;;;;;;5104314;27;20333;-87
2023/12/06 04:45:04;;;;;;;;;;;1.40;99.90;;;;;;5104384;28;19981;-87
2023/12/06 04:47:30;;;;;;;;;;;1.40;99.90;;;;;;5104672;28;19920;-87
2023/12/06 04:49:55;;;;;;;;;;;1.40;99.90;;;;;;5111420;27;20006;-88
2023/12/06 04:52:21;;;;;;;;;;;1.40;99.90;;;;;;5095448;28;19967;-87
2023/12/06 04:54:47;;;;;;;;;;;1.40;99.90;;;;;;5108421;27;20723;-86
2023/12/06 04:57:12;;;;;;;;;;;1.50;99.90;;;;;;5100233;28;19923;-86
2023/12/06 04:59:38;;;;;;;;;;;1.50;99.90;;;;;;5075573;28;20072;-87
2023/12/06 05:02:03;;;;;;;;;;;1.50;99.90;;;;;;5096168;27;20018;-87
2023/12/06 05:04:29;;;;;;;;;;;1.50;99.90;;;;;;5108761;27;20016;-85
2023/12/06 05:06:54;;;;;;;;;;;1.50;99.90;;;;;;5105296;27;20569;-86
2023/12/06 05:09:20;;;;;;;;;;;1.50;99.90;;;;;;5109846;28;19924;-85
2023/12/06 05:11:45;;;;;;;;;;;1.50;99.90;;;;;;5093079;28;20025;-84
2023/12/06 05:14:11;;;;;;;;;;;1.50;99.90;;;;;;5129866;27;19923;-85
2023/12/06 05:16:36;;;;;;;;;;;1.50;99.90;;;;;;5099783;28;20605;-85
2023/12/06 05:19:02;;;;;;;;;;;1.50;99.90;;;;;;5095255;28;20566;-85
2023/12/06 05:21:28;;;;;;;;;;;1.50;99.90;;;;;;5102640;28;19931;-86
2023/12/06 05:23:53;;;;;;;;;;;1.50;99.90;;;;;;5110781;28;20001;-86
2023/12/06 05:26:19;;;;;;;;;;;1.50;99.90;;;;;;5093372;28;19924;-84
2023/12/06 05:28:44;;;;;;;;;;;1.50;99.90;;;;;;5112477;28;19968;-87
2023/12/06 05:31:13;;;;;;;;;;;1.50;99.90;;;;;;5098261;27;19924;-86
2023/12/06 05:33:38;;;;;;;;;;;1.60;99.90;;;;;;5097926;27;20298;-86
2023/12/06 05:36:06;;;;;;;;;;;1.60;99.90;;;;;;5105547;28;20378;-87
2023/12/06 05:38:31;;;;;;;;;;;1.60;99.90;;;;;;5099553;28;19993;-86
2023/12/06 05:40:57;;;;;;;;;;;1.60;99.90;;;;;;5098053;27;19932;-86
2023/12/06 05:43:22;;;;;;;;;;;1.60;99.90;;;;;;5106438;27;19928;-86
2023/12/06 05:45:48;;;;;;;;;;;1.60;99.90;;;;;;5115779;27;19972;-87
2023/12/06 05:48:14;;;;;;;;;;;1.60;99.90;;;;;;5106150;28;19932;-87
2023/12/06 05:50:39;;;;;;;;;;;1.60;99.90;;;;;;5107562;27;19924;-86
2023/12/06 05:53:05;;;;;;;;;;;1.60;99.90;;;;;;5111811;27;20018;-88
2023/12/06 05:55:30;;;;;;;;;;;1.60;99.90;;;;;;5107517;28;19935;-88
2023/12/06 05:57:56;;;;;;;;;;;1.60;99.90;;;;;;5103091;27;19924;-87
2023/12/06 06:00:24;;;;;;;;;;;1.60;99.90;;;;;;5102585;27;20318;-87
2023/12/06 06:02:49;;;;;;;;;;;1.60;99.90;;;;;;5097159;28;19939;-88
2023/12/06 06:05:16;;;;;;;;;;;1.70;99.90;;;;;;5112656;27;19957;-86
2023/12/06 06:07:42;;;;;;;;;;;1.70;99.90;;;;;;5108532;28;19924;-88
2023/12/06 06:10:08;;;;;;;;;;;1.60;99.90;;;;;;5106150;27;19931;-90
2023/12/06 06:12:33;;;;;;;;;;;1.70;99.90;;;;;;5101562;28;19928;-88
2023/12/06 06:14:59;;;;;;;;;;;1.70;99.90;;;;;;5099357;28;19969;-89
2023/12/06 06:17:24;;;;;;;;;;;1.70;99.90;;;;;;5099667;27;19930;-89
2023/12/06 06:19:50;;;;;;;;;;;1.70;99.90;;;;;;5136026;27;20370;-89
2023/12/06 06:22:15;;;;;;;;;;;1.80;99.90;;;;;;5135009;27;20393;-87
2023/12/06 06:24:41;;;;;;;;;;;1.70;99.90;;;;;;5107054;28;19923;-88
2023/12/06 06:27:06;;;;;;;;;;;1.70;99.90;;;;;;5107356;28;20282;-88
2023/12/06 06:29:32;;;;;;;;;;;1.70;99.90;;;;;;5115553;27;20298;-88
2023/12/06 06:31:57;;;;;;;;;;;1.70;99.90;;;;;;5113314;28;20306;-88
2023/12/06 06:34:23;;;;;;;;;;;1.70;99.90;;;;;;5110616;28;20441;-87
2023/12/06 06:36:48;;;;;;;;;;;2.10;99.90;;;;;;5106975;27;19974;-88
2023/12/06 06:39:14;;;;;;;;;;;1.70;99.90;;;;;;5126285;27;20454;-89
2023/12/06 06:41:40;;;;;;;;;;;1.70;99.90;;;;;;5105250;28;20458;-88
2023/12/06 06:44:05;;;;;;;;;;;1.70;99.90;;;;;;5101780;28;19923;-89
2023/12/06 06:46:31;;;;;;;;;;;1.80;99.90;;;;;;5118170;27;20430;-90
2023/12/06 06:48:56;;;;;;;;;;;2.60;99.90;;;;;;5124799;27;19959;-88
2023/12/06 06:51:38;;;;;;;;;;;1.70;99.90;;;;;;5104846;27;20026;-90
2023/12/06 06:54:06;;;;;;;;;;;1.70;99.90;;;;;;5114791;28;19934;-89
2023/12/06 06:56:32;;;;;;;;;;;1.80;99.90;;;;;;5130226;27;19931;-90
2023/12/06 06:58:58;;;;;;;;;;;1.80;99.90;;;;;;5103804;27;20310;-90
2023/12/06 07:01:23;;;;;;;;;;;1.80;99.90;;;;;;5114487;28;20282;-89
2023/12/06 07:03:50;;;;;;;;;;;1.80;99.90;;;;;;5103417;28;19961;-90
2023/12/06 07:06:16;;;;;;;;;;;1.80;99.90;;;;;;5112445;27;20314;-88
2023/12/06 07:08:41;;;;;;;;;;;1.80;99.90;;;;;;5101811;28;19920;-90
2023/12/06 07:11:07;;;;;;;;;;;1.80;99.90;;;;;;5110812;28;19976;-90
2023/12/06 07:13:33;;;;;;;;;;;1.80;99.90;;;;;;5110472;28;19924;-90
2023/12/06 07:15:59;;;;;;;;;;;1.80;99.90;;;;;;5107844;28;19924;-90
2023/12/06 07:18:25;;;;;;;;;;;1.80;99.90;;;;;;5102341;28;19930;-91
2023/12/06 07:20:51;;;;;;;;;;;2.70;99.90;;;;;;5117852;27;19927;-90
2023/12/06 07:23:16;;;;;;;;;;;1.90;99.90;;;;;;5130210;27;19970;-93
2023/12/06 07:25:42;;;;;;;;;;;1.90;99.90;;;;;;5107519;27;19967;-90
2023/12/06 07:28:08;;;;;;;;;;;1.90;99.90;;;;;;5110384;28;19924;-88
2023/12/06 07:30:33;;;;;;;;;;;1.90;99.90;;;;;;5104154;27;19966;-87
2023/12/06 07:32:59;;;;;;;;;;;1.90;99.90;;;;;;5106028;27;19926;-87
2023/12/06 07:35:25;;;;;;;;;;;2.30;99.90;;;;;;5106708;28;19924;-87
2023/12/06 07:37:50;;;;;;;;;;;1.90;99.90;;;;;;5096121;28;19924;-86
2023/12/06 07:40:16;;;;;;;;;;;1.90;99.90;;;;;;5105056;28;19920;-87
2023/12/06 07:42:41;;;;;;;;;;;1.90;99.90;;;;;;5117142;27;19963;-82
2023/12/06 07:45:11;;;;;;;;;;;1.90;99.90;;;;;;5112727;27;19973;-84
2023/12/06 07:47:38;;;;;;;;;;;1.90;99.90;;;;;;5100036;27;19927;-88
2023/12/06 07:50:03;;;;;;;;;;;1.90;99.90;;;;;;5109847;28;20340;-87
2023/12/06 07:52:33;;;;;;;;;;;1.90;99.90;;;;;;5114272;27;19931;-87
2023/12/06 07:54:59;;;;;;;;;;;2.30;99.90;;;;;;5113095;28;19974;-87
2023/12/06 07:57:27;;;;;;;;;;;1.90;99.90;;;;;;5125370;27;19970;-89
2023/12/06 07:59:53;;;;;;;;;;;1.90;99.90;;;;;;5112901;27;20340;-89
2023/12/06 08:02:19;;;;;;;;;;;2.30;99.90;;;;;;5107657;28;19928;-87
2023/12/06 08:04:44;;;;;;;;;;;2.00;99.90;;;;;;5117602;27;19970;-87
2023/12/06 08:07:10;;;;;;;;;;;2.00;99.90;;;;;;5099183;27;19955;-86
2023/12/06 08:09:36;;;;;;;;;;;2.00;99.90;;;;;;5128958;27;19958;-88
2023/12/06 08:12:02;;;;;;;;;;;2.00;99.90;;;;;;5107803;28;20406;-88
2023/12/06 08:14:29;;;;;;;;;;;1.90;99.90;;;;;;5111970;27;19963;-88
2023/12/06 08:16:54;;;;;;;;;;;2.00;99.90;;;;;;5113343;27;19924;-88
2023/12/06 08:19:20;;;;;;;;;;;2.10;99.90;;;;;;5132102;27;19965;-88
2023/12/06 08:21:46;;;;;;;;;;;2.00;99.90;;;;;;5128901;27;19966;-89
2023/12/06 08:24:12;;;;;;;;;;;2.00;99.90;;;;;;5132654;27;20978;-88
2023/12/06 08:26:38;;;;;;;;;;;2.40;99.90;;;;;;5117715;27;19927;-90
2023/12/06 08:29:04;;;;;;;;;;;2.10;99.90;;;;;;5117968;27;19923;-88
2023/12/06 08:31:31;;;;;;;;;;;2.10;99.90;;;;;;5128518;27;19923;-89
2023/12/06 08:33:57;;;;;;;;;;;2.10;99.90;;;;;;5109356;28;19930;-89
2023/12/06 08:36:23;;;;;;;;;;;2.10;99.90;;;;;;5111220;28;19924;-87
2023/12/06 08:38:48;;;;;;;;;;;2.10;99.90;;;;;;5119541;27;20391;-88
2023/12/06 08:41:14;;;;;;;;;;;2.60;99.90;;;;;;5120302;27;20376;-90
2023/12/06 08:43:41;;;;;;;;;;;2.40;99.90;;;;;;5121203;27;20337;-88
2023/12/06 08:46:07;;;;;;;;;;;2.20;99.90;;;;;;5117050;27;19930;-87
2023/12/06 08:48:33;;;;;;;;;;;2.20;99.90;;;;;;5121912;27;19928;-86
2023/12/06 08:50:59;;;;;;;;;;;2.30;99.90;;;;;;5119738;27;20330;-86
2023/12/06 08:53:24;;;;;;;;;;;2.30;99.90;;;;;;5114644;27;20002;-87
2023/12/06 08:55:51;;;;;;;;;;;2.30;99.90;;;;;;5096096;28;19934;-85
2023/12/06 08:58:17;;;;;;;;;;;2.30;99.90;;;;;;5116499;27;19924;-87
2023/12/06 09:00:43;;;;;;;;;;;2.60;99.90;;;;;;5120648;27;19966;-87
2023/12/06 09:03:09;;;;;;;;;;;2.30;99.90;;;;;;5116099;27;19959;-86
2023/12/06 09:05:34;;;;;;;;;;;2.50;99.90;;;;;;5093332;27;19955;-86
2023/12/06 09:08:00;;;;;;;;;;;2.30;99.90;;;;;;5112557;27;19920;-85
2023/12/06 09:10:26;;;;;;;;;;;2.70;99.90;;;;;;5090484;28;19928;-86
2023/12/06 09:12:52;;;;;;;;;;;2.40;99.90;;;;;;5099653;27;19946;-75
2023/12/06 09:15:17;;;;;;;;;;;2.40;99.90;;;;;;5116091;28;19931;-75
2023/12/06 09:17:45;;;;;;;;;;;2.40;99.90;;;;;;5119072;27;20209;-75
2023/12/06 09:20:11;;;;;;;;;;;2.40;99.90;;;;;;5129060;27;20334;-75
2023/12/06 09:22:36;;;;;;;;;;;2.50;99.90;;;;;;5114967;28;19928;-74
2023/12/06 09:25:04;;;;;;;;;;;2.50;99.90;;;;;;5102617;28;19923;-74
2023/12/06 09:27:31;;;;;;;;;;;2.50;99.90;;;;;;5104532;28;20357;-74
2023/12/06 09:29:56;;;;;;;;;;;2.50;99.90;;;;;;5113888;28;20018;-74
2023/12/06 09:32:23;;;;;;;;;;;2.50;99.90;;;;;;5099086;28;20119;-74
2023/12/06 09:34:49;;;;;;;;;;;2.80;99.90;;;;;;5109750;28;19923;-75
2023/12/06 09:37:15;;;;;;;;;;;2.50;99.90;;;;;;5108938;28;19946;-75
2023/12/06 09:39:41;;;;;;;;;;;3.10;99.90;;;;;;5120687;27;19924;-75
2023/12/06 09:42:06;;;;;;;;;;;3.10;99.90;;;;;;5109126;28;19977;-74
2023/12/06 09:44:32;;;;;;;;;;;2.50;99.90;;;;;;5100000;28;20018;-75
2023/12/06 09:46:59;;;;;;;;;;;2.50;99.90;;;;;;5107930;28;20018;-75
2023/12/06 09:49:24;;;;;;;;;;;2.50;99.90;;;;;;5102984;28;20242;-75
2023/12/06 09:51:50;;;;;;;;;;;2.50;99.90;;;;;;5095010;28;20401;-75
2023/12/06 09:54:15;;;;;;;;;;;2.50;99.90;;;;;;5092180;28;20146;-75
2023/12/06 09:56:42;;;;;;;;;;;2.60;99.90;;;;;;5110727;28;20500;-75
2023/12/06 09:59:07;;;;;;;;;;;2.90;99.90;;;;;;5092163;28;20345;-77
2023/12/06 10:01:33;;;;;;;;;;;2.60;99.90;;;;;;5120048;28;19928;-74
2023/12/06 10:03:58;;;;;;;;;;;2.60;99.90;;;;;;5120078;28;19928;-76
2023/12/06 10:06:24;;;;;;;;;;;2.90;99.90;;;;;;5102923;28;19924;-76
2023/12/06 10:08:53;;;;;;;;;;;2.60;99.90;;;;;;5097887;28;19923;-76
2023/12/06 10:11:22;;;;;;;;;;;2.60;99.90;;;;;;5090425;28;20374;-77
2023/12/06 10:13:47;;;;;;;;;;;2.60;99.90;;;;;;5108341;28;20120;-74
2023/12/06 10:16:17;;;;;;;;;;;2.70;99.90;;;;;;5110478;28;19936;-75
2023/12/06 10:18:46;;;;;;;;;;;2.70;99.90;;;;;;5126091;27;20014;-75
2023/12/06 10:21:12;;;;;;;;;;;2.70;99.90;;;;;;5119839;27;19966;-74
2023/12/06 10:23:38;;;;;;;;;;;2.80;99.90;;;;;;5113460;27;19959;-77
2023/12/06 10:26:07;;;;;;;;;;;3.20;99.90;;;;;;5095119;28;19923;-76
2023/12/06 10:28:36;;;;;;;;;;;2.70;99.90;;;;;;5102338;27;20010;-77
2023/12/06 10:31:03;;;;;;;;;;;2.70;99.90;;;;;;5112835;27;19930;-77
2023/12/06 10:33:32;;;;;;;;;;;2.70;99.90;;;;;;5104394;27;19928;-79
2023/12/06 10:35:59;;;;;;;;;;;2.70;99.90;;;;;;5099192;27;19941;-79
2023/12/06 10:38:25;;;;;;;;;;;2.70;99.90;;;;;;5104357;27;20435;-80
2023/12/06 10:40:51;;;;;;;;;;;2.70;99.90;;;;;;5126830;27;19924;-79
2023/12/06 10:43:18;;;;;;;;;;;3.20;99.90;;;;;;5107995;27;19930;-79
2023/12/06 10:45:46;;;;;;;;;;;2.80;99.90;;;;;;5126146;27;19924;-79
2023/12/06 10:48:11;;;;;;;;;;;2.80;99.90;;;;;;5113581;27;19919;-79
2023/12/06 10:50:37;;;;;;;;;;;2.90;99.90;;;;;;5129872;27;19927;-79
2023/12/06 10:53:04;;;;;;;;;;;2.80;99.90;;;;;;5115313;27;19923;-80
2023/12/06 10:55:32;;;;;;;;;;;3.80;99.90;;;;;;5113774;27;20662;-80
2023/12/06 10:58:00;;;;;;;;;;;2.80;99.90;;;;;;5131016;27;20002;-79
2023/12/06 11:00:26;;;;;;;;;;;3.20;99.90;;;;;;5097359;28;19924;-80
2023/12/06 11:02:55;;;;;;;;;;;2.80;99.90;;;;;;5093984;27;19995;-79
2023/12/06 11:05:23;;;;;;;;;;;2.90;99.90;;;;;;5097044;27;19924;-79
2023/12/06 11:07:52;;;;;;;;;;;2.90;99.90;;;;;;5113962;27;20451;-79
2023/12/06 11:10:36;;;;;;;;;;;2.90;99.90;;;;;;5099336;28;19924;-80
2023/12/06 11:13:05;;;;;;;;;;;2.90;99.90;;;;;;5118051;27;19927;-80
2023/12/06 11:15:30;;;;;;;;;;;2.90;99.90;;;;;;5104014;28;19924;-80
2023/12/06 11:18:13;;;;;;;;;;;3.00;99.90;;;;;;5116329;27;19923;-78
2023/12/06 11:20:43;;;;;;;;;;;3.00;99.90;;;;;;5096395;27;19951;-79
2023/12/06 11:23:12;;;;;;;;;;;3.00;99.90;;;;;;5109368;28;20402;-79
2023/12/06 11:25:42;;;;;;;;;;;3.00;99.90;;;;;;5106956;28;19934;-78
2023/12/06 11:28:10;;;;;;;;;;;3.00;99.90;;;;;;5104231;28;19924;-79
2023/12/06 11:30:49;;;;;;;;;;;3.00;99.90;;;;;;5118705;27;20041;-80
2023/12/06 11:33:15;;;;;;;;;;;3.00;99.90;;;;;;5094772;27;20006;-79
2023/12/06 11:35:59;;;;;;;;;;;3.10;99.90;;;;;;5130457;27;19965;-78
2023/12/06 11:38:31;;;;;;;;;;;3.10;99.90;;;;;;5095364;27;19923;-80
2023/12/06 11:40:58;;;;;;;;;;;3.10;99.90;;;;;;5097861;27;20309;-78
2023/12/06 11:43:33;;;;;;;;;;;3.10;99.90;;;;;;5101588;28;19927;-78
2023/12/06 11:46:03;;;;;;;;;;;3.10;99.90;;;;;;5093804;27;20259;-75
2023/12/06 11:48:28;;;;;;;;;;;3.10;99.90;;;;;;5107256;27;19978;-74
2023/12/06 11:50:55;;;;;;;;;;;3.10;99.90;;;;;;5100159;28;20399;-77
2023/12/06 11:53:21;;;;;;;;;;;3.50;99.90;;;;;;5104165;27;19924;-77
2023/12/06 11:55:47;;;;;;;;;;;3.20;99.90;;;;;;5105272;27;19946;-77
2023/12/06 11:58:14;;;;;;;;;;;3.20;99.90;;;;;;5095479;27;19927;-74
2023/12/06 12:00:42;;;;;;;;;;;3.30;99.90;;;;;;5090817;27;20022;-78
2023/12/06 12:03:08;;;;;;;;;;;3.20;99.90;;;;;;5104433;28;19924;-81
2023/12/06 12:05:33;;;;;;;;;;;4.10;99.90;;;;;;5091652;28;19923;-79
2023/12/06 12:08:00;;;;;;;;;;;3.20;99.90;;;;;;5123725;27;20283;-77
2023/12/06 12:10:26;;;;;;;;;;;3.20;99.90;;;;;;5126457;27;19923;-79
2023/12/06 12:12:51;;;;;;;;;;;3.70;99.90;;;;;;5091020;28;19920;-79
2023/12/06 12:15:17;;;;;;;;;;;3.20;99.90;;;;;;5112364;27;20014;-79
2023/12/06 12:17:44;;;;;;;;;;;3.20;99.90;;;;;;5113987;27;20417;-79
2023/12/06 12:20:10;;;;;;;;;;;3.20;99.90;;;;;;5127253;27;19967;-80
2023/12/06 12:22:46;;;;;;;;;;;3.20;99.90;;;;;;5119632;27;19932;-79
2023/12/06 12:25:11;;;;;;;;;;;3.20;99.90;;;;;;5097157;28;19934;-79
2023/12/06 12:27:37;;;;;;;;;;;4.20;99.90;;;;;;5112085;27;19924;-77
2023/12/06 12:30:09;;;;;;;;;;;4.00;99.90;;;;;;5102499;27;20026;-79
2023/12/06 12:32:35;;;;;;;;;;;3.20;99.90;;;;;;5100975;28;20420;-80
2023/12/06 12:35:02;;;;;;;;;;;3.60;99.90;;;;;;5111289;27;19938;-79
2023/12/06 12:37:27;;;;;;;;;;;3.40;99.90;;;;;;5102205;28;19949;-79
2023/12/06 12:39:53;;;;;;;;;;;3.20;99.90;;;;;;5094146;27;20611;-78
2023/12/06 12:42:19;;;;;;;;;;;3.20;99.90;;;;;;5109210;27;19923;-79
2023/12/06 12:44:44;;;;;;;;;;;3.20;99.90;;;;;;5108483;27;19996;-80
2023/12/06 12:47:10;;;;;;;;;;;3.20;99.90;;;;;;5111215;27;20379;-80
2023/12/06 12:49:36;;;;;;;;;;;3.20;99.90;;;;;;5119806;27;19923;-80
2023/12/06 12:52:02;;;;;;;;;;;3.20;99.90;;;;;;5111368;27;19975;-79
2023/12/06 12:54:27;;;;;;;;;;;3.20;99.90;;;;;;5118945;27;19977;-79
2023/12/06 12:56:53;;;;;;;;;;;3.40;99.90;;;;;;5095221;27;19967;-79
2023/12/06 12:59:19;;;;;;;;;;;3.20;99.90;;;;;;5093563;28;19935;-79
2023/12/06 13:01:45;;;;;;;;;;;3.60;99.90;;;;;;5099615;27;19928;-80
2023/12/06 13:04:11;;;;;;;;;;;3.20;99.90;;;;;;5095401;28;19931;-79
2023/12/06 13:06:39;;;;;;;;;;;3.30;99.90;;;;;;5091721;28;19923;-79
2023/12/06 13:09:06;;;;;;;;;;;3.30;99.90;;;;;;5099245;28;19924;-80
2023/12/06 13:11:32;;;;;;;;;;;3.40;99.90;;;;;;5096024;27;20183;-79
2023/12/06 13:13:58;;;;;;;;;;;3.80;99.90;;;;;;5114522;28;19946;-79
2023/12/06 13:16:23;;;;;;;;;;;3.30;99.90;;;;;;5091363;28;20367;-80
2023/12/06 13:18:50;;;;;;;;;;;3.30;99.90;;;;;;5110239;28;19932;-80
2023/12/06 13:21:16;;;;;;;;;;;3.30;99.90;;;;;;5099553;28;19921;-79
2023/12/06 13:23:42;;;;;;;;;;;3.30;99.90;;;;;;5092162;28;20440;-79
2023/12/06 13:26:07;;;;;;;;;;;3.60;99.90;;;;;;5090164;28;19928;-79
2023/12/06 13:28:33;;;;;;;;;;;3.60;99.90;;;;;;5108497;28;20404;-79
2023/12/06 13:30:59;;;;;;;;;;;3.40;99.90;;;;;;5105560;28;19959;-77
2023/12/06 13:33:25;;;;;;;;;;;3.30;99.90;;;;;;5102031;28;19919;-79
2023/12/06 13:35:50;;;;;;;;;;;3.50;99.90;;;;;;5111659;28;19976;-79
2023/12/06 13:38:16;;;;;;;;;;;3.80;99.90;;;;;;5111654;28;19992;-79
2023/12/06 13:40:42;;;;;;;;;;;3.30;99.90;;;;;;5110662;28;19926;-79
2023/12/06 13:43:07;;;;;;;;;;;4.10;99.90;;;;;;5104610;28;19930;-79
2023/12/06 13:45:33;;;;;;;;;;;3.30;99.90;;;;;;5108228;28;19976;-78
2023/12/06 13:47:59;;;;;;;;;;;3.30;99.90;;;;;;5128819;28;19970;-78
2023/12/06 13:50:25;;;;;;;;;;;3.40;99.90;;;;;;5110073;28;20350;-79
2023/12/06 13:52:50;;;;;;;;;;;3.20;99.90;;;;;;5105400;28;19966;-79
2023/12/06 13:55:16;;;;;;;;;;;3.20;99.90;;;;;;5107861;28;19946;-79
2023/12/06 13:57:44;;;;;;;;;;;3.80;99.90;;;;;;5113357;28;19924;-79
2023/12/06 14:00:10;;;;;;;;;;;3.20;99.90;;;;;;5111591;28;20007;-79
2023/12/06 14:02:35;;;;;;;;;;;3.20;99.90;;;;;;5112647;28;19971;-80
2023/12/06 14:05:01;;;;;;;;;;;3.10;99.90;;;;;;5113126;28;19959;-79
2023/12/06 14:07:27;;;;;;;;;;;3.20;99.90;;;;;;5111300;28;19924;-79
2023/12/06 14:09:53;;;;;;;;;;;3.10;99.90;;;;;;5114078;28;19936;-79
2023/12/06 14:12:18;;;;;;;;;;;4.10;99.90;;;;;;5111740;28;19932;-79
2023/12/06 14:14:44;;;;;;;;;;;3.10;99.90;;;;;;5112218;28;19982;-79
2023/12/06 14:17:10;;;;;;;;;;;3.10;99.90;;;;;;5112839;27;20397;-79
2023/12/06 14:19:35;;;;;;;;;;;3.10;99.90;;;;;;5105824;28;19924;-79
2023/12/06 14:22:01;;;;;;;;;;;3.10;99.90;;;;;;5111436;27;20291;-78
2023/12/06 14:24:27;;;;;;;;;;;4.00;99.90;;;;;;5126483;27;19930;-78